Etusivu
METAR-TAF:

METAR-TAF

Lentoasemat :

LaGrange-Callaway Airport

LaGrange, Georgia, Yhdysvallat

Leveyspiiri: 33-00-32N, Pituuspiiri: 085-04-21W, korkeus merenpinnasta: 211 m

Tämänhetkinen sää

Tämä raportti tehtiin 10 minuuttia sitten, kello 12.35 UTC
Tuuli 4 kn kaakosta
Lämpötila 8°C
Kosteus 87%
Ilmanpaine 1017 hPa
Näkyvyys: 16.1 km
Pilvistä 10000 ft:n korkeudessa
heikkoa sadetta

METAR: KLGC 241235Z AUTO 13004KT 10SM -RA OVC100 08/06 A3003 RMK AO2 T00750056

Aika: 07:45 (12:45 UTC)


TAF: puuttuu

Säähavainnot ja -ennusteet yli 4000 lentoasemalta (METAR- ja TAF-raportit).

Käytössä olevat sääasemat on merkitty karttaan keltaisilla ja punaisilla pisteillä.

Aseta hiiri pisteen päälle nähdäksesi sääaseman nimen.

Klikkaa sitten nähdäksesi säähavainnot ja -ennusteet.

Kartan vaihtaminen: klikkaa mustalla rastilla varustettuja vihreitä pisteitä, niin voit zoomata sisään; viivalla varustettua vihreää pistettä, niin voit zoomata ulos tai vihreitä nuolia, niin pääset viereisille kartoille.


METAR-TAF: